Flight Track Log - Related Links

Times and Time Zones

All times are in EDT time to prevent confusion due to time zone crossing. See the AAL94 flight status page for this flight to view local times or setup timezone preferences in your user account.


Time Position Orientation Groundspeed Altitude Reporting Facility
EDT Latitude Longitude Course Direction KTS MPH feet Rate Location/Type
Mon 07:25:22 PM 40.5940 -73.7620 164° South 202 232 1,300  Level FlightAware ADS-B
Mon 07:25:37 PM 40.5850 -73.7490 132° Southeast 200 230 1,900 2,200 Climbing FlightAware ADS-B
Mon 07:25:52 PM 40.5820 -73.7320 103° East 215 247 2,400 2,250 Climbing FlightAware ADS-B
Mon 07:26:17 PM 40.5880 -73.6960 78° East 239 275 3,400 2,836 Climbing FlightAware ADS-B
Mon 07:26:47 PM 40.5940 -73.6570 79° East 240 276 5,000 3,200 Climbing FlightAware ADS-B
Mon 07:27:17 PM 40.5840 -73.6110 106° East 255 293 6,600 3,000 Climbing FlightAware ADS-B
Mon 07:27:43 PM 40.5698 -73.5688 114° Southeast 268 308 7,800 2,571 Climbing FlightAware ADS-B
Mon 07:27:59 PM 40.5617 -73.5438 113° Southeast 285 328 8,400 2,516 Climbing FlightAware ADS-B
Mon 07:28:14 PM 40.5531 -73.5197 115° Southeast 291 335 9,100 2,647 Climbing FlightAware ADS-B
Mon 07:28:33 PM 40.5428 -73.4885 113° Southeast 295 339 9,900 1,962 Climbing FlightAware ADS-B
Mon 07:29:06 PM 40.5246 -73.4324 113° Southeast 327 376 10,800 1,662 Climbing FlightAware ADS-B
Mon 07:29:38 PM 40.5028 -73.3711 115° Southeast 358 412 11,700 2,372 Climbing FlightAware ADS-B
Mon 07:30:32 PM 40.4770 -73.2590 107° East 375 432 14,200 2,900 Climbing FlightAware ADS-B
Mon 07:30:38 PM 40.4764 -73.2435 93° East 376 433 14,600 2,833 Climbing FlightAware ADS-B
Mon 07:31:08 PM 40.4853 -73.1755 80° East 385 443 15,900 2,600 Climbing FlightAware ADS-B
Mon 07:31:38 PM 40.4958 -73.1051 79° East 385 443 17,200 2,435 Climbing FlightAware ADS-B
Mon 07:32:17 PM 40.5078 -73.0122 80° East 404 465 18,700 2,143 Climbing FlightAware ADS-B
Mon 07:32:34 PM 40.5129 -72.9712 81° East 411 473 19,200 1,800 Climbing FlightAware ADS-B
Mon 07:33:07 PM 40.5231 -72.8872 81° East 425 489 20,200 1,816 Climbing FlightAware ADS-B
Mon 07:33:50 PM 40.5366 -72.7771 81° East 439 505 21,500 1,667 Climbing FlightAware ADS-B
Mon 07:34:37 PM 40.5520 -72.6560 80° East 457 526 22,700 1,627 Climbing FlightAware ADS-B
Mon 07:34:49 PM 40.5569 -72.6183 80° East 455 524 23,100 1,429 Climbing FlightAware ADS-B
Mon 07:35:19 PM 40.5679 -72.5312 81° East 455 524 23,700 1,352 Climbing FlightAware ADS-B
Mon 07:36:00 PM 40.5825 -72.4135 81° East 481 554 24,700 1,532 Climbing FlightAware ADS-B
Mon 07:36:53 PM 40.6019 -72.2553 81° East 493 567 26,100 1,553 Climbing FlightAware ADS-B
Mon 07:37:25 PM 40.6139 -72.1563 81° East 512 589 26,900 1,524 Climbing FlightAware ADS-B
Mon 07:37:56 PM 40.6252 -72.0621 81° East 517 595 27,700 1,121 Climbing FlightAware ADS-B
Mon 07:39:12 PM 40.6510 -71.8490 81° East 517 595 28,900 1,655 Climbing FlightAware ADS-B
Mon 07:39:52 PM 40.6660 -71.7240 81° East 501 577 30,900 2,092 Climbing FlightAware ADS-B
Mon 07:40:12 PM 40.6450 -71.8960 261° West 31,500 1,565 Climbing FlightAware ADS-B
Mon 07:41:01 PM 40.6930 -71.4875 81° East 525 604 32,700 943 Climbing FlightAware ADS-B
Mon 07:42:47 PM 40.7300 -71.1640 81° East 34,200 783 Climbing FlightAware ADS-B
Mon 07:43:42 PM 40.7490 -70.9910 82° East 534 615 34,800 914 Climbing FlightAware ADS-B
Mon 07:44:32 PM 40.7670 -70.8280 82° East 533 613 35,800 1,029 Climbing FlightAware ADS-B
Mon 07:45:27 PM 40.7860 -70.6580 82° East 534 615 36,600 686 Climbing FlightAware ADS-B
Mon 07:46:17 PM 40.8040 -70.4880 82° East 536 617 37,000 253 Climbing FlightAware ADS-B
Mon 07:47:02 PM 40.8190 -70.3450 82° East 534 615 37,000  Level FlightAware ADS-B
Mon 07:47:47 PM 40.8320 -70.2040 83° East 532 612 37,000  Level FlightAware ADS-B
Mon 07:48:27 PM 40.8430 -70.0940 82° East 532 612 37,000  Level FlightAware ADS-B
Mon 07:49:12 PM 40.8610 -69.9370 81° East 526 605 37,000  Level FlightAware ADS-B
Mon 07:49:52 PM 40.8730 -69.8290 82° East 526 605 37,000  Level FlightAware ADS-B
Mon 07:50:32 PM 40.8840 -69.7210 82° East 526 605 37,000  Level FlightAware ADS-B
Mon 07:51:07 PM 40.8980 -69.5630 83° East 37,000  Level FlightAware ADS-B
Mon 07:51:57 PM 40.9140 -69.4110 82° East 526 605 37,000  Level FlightAware ADS-B
Mon 07:52:32 PM 40.9250 -69.2820 84° East 526 605 37,000  Level FlightAware ADS-B
Mon 07:53:17 PM 40.9380 -69.1570 82° East 526 605 37,000  Level FlightAware ADS-B
Mon 07:53:57 PM 40.9500 -69.0480 82° East 526 605 37,000  Level FlightAware ADS-B
Mon 07:54:47 PM 40.9640 -68.9130 82° East 526 605 37,000  Level FlightAware ADS-B
Mon 07:55:27 PM 40.9760 -68.8040 82° East 526 605 37,000  Level FlightAware ADS-B
Mon 07:56:07 PM 40.9870 -68.6960 82° East 526 605 37,000  Level FlightAware ADS-B
Mon 07:56:47 PM 40.9990 -68.5870 82° East 526 605 37,000  Level FlightAware ADS-B
Mon 07:57:27 PM 41.0100 -68.4790 82° East 526 605 37,000  Level FlightAware ADS-B
Mon 07:58:17 PM 41.0250 -68.3430 82° East 526 605 37,000  Level FlightAware ADS-B
Mon 07:58:57 PM 41.0360 -68.2340 82° East 526 605 37,000  Level FlightAware ADS-B
Mon 07:59:37 PM 41.0480 -68.1260 82° East 526 605 37,000  Level FlightAware ADS-B
Mon 08:00:17 PM 41.0590 -68.0170 82° East 526 605 37,000  Level FlightAware ADS-B
Mon 08:01:07 PM 41.0730 -67.8810 82° East 526 605 37,000  Level FlightAware ADS-B
Mon 08:01:47 PM 41.0850 -67.7720 82° East 526 605 37,000  Level FlightAware ADS-B
Mon 08:02:27 PM 41.0970 -67.6640 82° East 526 605 37,000  Level FlightAware ADS-B
Mon 08:02:51 PM 41.0964 -67.2817 82° East 529 609 37,000  Level New York Center
Mon 08:03:51 PM 41.1094 -67.0883 85° East 524 603 37,000  Level New York Center
Mon 08:05:00 PM 41.1301 -66.8982 78° East  Level FlightAware Approximate
Mon 08:06:41 PM 41.1167 -67.0000 78° East 548 631 37,000  Level New York Oceanic (ODAPS)
Mon 08:12:00 PM 41.3558 -65.4175 79° East 548 631 37,000  Level FlightAware Transoceanic
Mon 08:13:00 PM 41.3842 -65.2189 79° East 548 631 37,000  Level FlightAware Transoceanic
Mon 08:14:00 PM 41.4122 -65.0201 79° East 548 631 37,000  Level FlightAware Transoceanic
Mon 08:15:00 PM 41.4399 -64.8212 80° East 548 631 37,000  Level FlightAware Transoceanic
Mon 08:16:00 PM 41.4672 -64.6221 80° East 548 631 37,000  Level FlightAware Transoceanic
Mon 08:17:00 PM 41.4942 -64.4228 80° East 548 631 37,000  Level FlightAware Transoceanic
Mon 08:18:00 PM 41.5209 -64.2233 80° East 548 631 37,000  Level FlightAware Transoceanic
Mon 08:19:00 PM 41.5472 -64.0237 80° East 548 631 37,000  Level FlightAware Transoceanic
Mon 08:20:00 PM 41.5731 -63.8239 80° East 548 631 37,000  Level FlightAware Transoceanic
Mon 08:21:00 PM 41.5988 -63.6240 80° East 548 631 37,000  Level FlightAware Transoceanic
Mon 08:22:00 PM 41.6240 -63.4239 80° East 548 631 37,000  Level FlightAware Transoceanic
Mon 08:23:00 PM 41.6489 -63.2236 81° East 548 631 37,000  Level FlightAware Transoceanic
Mon 08:24:00 PM 41.6735 -63.0232 81° East 548 631 37,000  Level FlightAware Transoceanic
Mon 08:25:00 PM 41.6977 -62.8227 81° East 548 631 37,000  Level FlightAware Transoceanic
Mon 08:26:00 PM 41.7216 -62.6220 81° East 548 631 37,000  Level FlightAware Transoceanic
Mon 08:27:00 PM 41.7451 -62.4211 81° East 548 631 37,000  Level FlightAware Transoceanic
Mon 08:28:00 PM 41.7683 -62.2201 81° East 548 631 37,000  Level FlightAware Transoceanic
Mon 08:29:00 PM 41.7911 -62.0190 81° East 548 631 37,000  Level FlightAware Transoceanic
Mon 08:30:00 PM 41.8136 -61.8177 82° East 548 631 37,000  Level FlightAware Transoceanic
Mon 08:31:00 PM 41.8357 -61.6162 82° East 548 631 37,000  Level FlightAware Transoceanic
Mon 08:32:00 PM 41.8575 -61.4147 82° East 548 631 37,000  Level FlightAware Transoceanic
Mon 08:33:00 PM 41.8789 -61.2130 82° East 548 631 37,000  Level FlightAware Transoceanic
Mon 08:34:00 PM 41.9000 -61.0111 82° East 548 631 37,000  Level FlightAware Transoceanic
Mon 08:35:00 PM 41.9207 -60.8092 82° East 548 631 37,000  Level FlightAware Transoceanic
Mon 08:36:00 PM 41.9411 -60.6071 82° East 548 631 37,000  Level FlightAware Transoceanic
Mon 08:37:00 PM 41.9611 -60.4048 82° East 548 631 37,000  Level FlightAware Transoceanic
Mon 08:38:00 PM 41.9807 -60.2025 83° East 548 631 37,000  Level FlightAware Transoceanic
Mon 08:39:00 PM 42.0000 -60.0000 71° East 548 631 37,000  Level FlightAware Transoceanic
Mon 08:40:00 PM 42.0465 -59.8141 71° East 548 631 37,000  Level FlightAware Transoceanic
Mon 08:41:00 PM 42.0927 -59.6280 72° East 548 631 37,000  Level FlightAware Transoceanic
Mon 08:41:48 PM 42.0000 -60.0000 71° East 526 605 37,000  Level New York Oceanic (ODAPS)
Mon 08:42:00 PM 42.1386 -59.4415 72° East 548 631 37,000  Level FlightAware Transoceanic
Mon 08:43:00 PM 42.1842 -59.2548 72° East 548 631 37,000  Level FlightAware Transoceanic
Mon 08:44:00 PM 42.2295 -59.0679 72° East 548 631 37,000  Level FlightAware Transoceanic
Mon 08:45:00 PM 42.2745 -58.8807 72° East 548 631 37,000  Level FlightAware Transoceanic
Mon 08:46:00 PM 42.3191 -58.6932 72° East 548 631 37,000  Level FlightAware Transoceanic
Mon 08:47:00 PM 42.3635 -58.5054 72° East 548 631 37,000  Level FlightAware Transoceanic
Mon 08:48:00 PM 42.3635 -58.5054 72° East 526 605 37,000  Level FlightAware Transoceanic
Mon 08:49:00 PM 42.4076 -58.3174 72° East 526 605 37,000  Level FlightAware Transoceanic
Mon 08:50:00 PM 42.4513 -58.1291 73° East 526 605 37,000  Level FlightAware Transoceanic
Mon 08:51:00 PM 42.4948 -57.9405 73° East 526 605 37,000  Level FlightAware Transoceanic
Mon 08:52:00 PM 42.5379 -57.7517 73° East 526 605 37,000  Level FlightAware Transoceanic
Mon 08:53:00 PM 42.5808 -57.5627 73° East 526 605 37,000  Level FlightAware Transoceanic
Mon 08:54:00 PM 42.6233 -57.3733 73° East 526 605 37,000  Level FlightAware Transoceanic
Mon 08:55:00 PM 42.6655 -57.1837 73° East 526 605 37,000  Level FlightAware Transoceanic
Mon 08:56:00 PM 42.7074 -56.9939 73° East 526 605 37,000  Level FlightAware Transoceanic
Mon 08:57:00 PM 42.7490 -56.8038 73° East 526 605 37,000  Level FlightAware Transoceanic
Mon 08:58:00 PM 42.7902 -56.6134 74° East 526 605 37,000  Level FlightAware Transoceanic
Mon 08:59:00 PM 42.8312 -56.4228 74° East 526 605 37,000  Level FlightAware Transoceanic
Mon 09:00:00 PM 42.8718 -56.2320 74° East 526 605 37,000  Level FlightAware Transoceanic
Mon 09:01:00 PM 42.9122 -56.0409 74° East 526 605 37,000  Level FlightAware Transoceanic
Mon 09:02:00 PM 42.9521 -55.8495 74° East 526 605 37,000  Level FlightAware Transoceanic
Mon 09:03:00 PM 42.9918 -55.6579 74° East 526 605 37,000  Level FlightAware Transoceanic
Mon 09:04:00 PM 43.0312 -55.4660 74° East 526 605 37,000  Level FlightAware Transoceanic
Mon 09:05:00 PM 43.0702 -55.2739 75° East 526 605 37,000  Level FlightAware Transoceanic
Mon 09:06:00 PM 43.1089 -55.0816 75° East 526 605 37,000  Level FlightAware Transoceanic
Mon 09:07:00 PM 43.1473 -54.8890 75° East 526 605 37,000  Level FlightAware Transoceanic
Mon 09:08:00 PM 43.1854 -54.6962 75° East 526 605 37,000  Level FlightAware Transoceanic
Mon 09:09:00 PM 43.2231 -54.5031 75° East 526 605 37,000  Level FlightAware Transoceanic
Mon 09:10:00 PM 43.2606 -54.3098 75° East 526 605 37,000  Level FlightAware Transoceanic
Mon 09:11:00 PM 43.2977 -54.1163 75° East 526 605 37,000  Level FlightAware Transoceanic
Mon 09:12:00 PM 43.3344 -53.9225 75° East 526 605 37,000  Level FlightAware Transoceanic
Mon 09:13:00 PM 43.3709 -53.7285 76° East 526 605 37,000  Level FlightAware Transoceanic
Mon 09:14:00 PM 43.4070 -53.5342 76° East 526 605 37,000  Level FlightAware Transoceanic
Mon 09:15:00 PM 43.4428 -53.3398 76° East 526 605 37,000  Level FlightAware Transoceanic
Mon 09:16:00 PM 43.4782 -53.1451 76° East 526 605 37,000  Level FlightAware Transoceanic
Mon 09:17:00 PM 43.5134 -52.9501 76° East 526 605 37,000  Level FlightAware Transoceanic
Mon 09:18:00 PM 43.5481 -52.7550 76° East 526 605 37,000  Level FlightAware Transoceanic
Mon 09:19:00 PM 43.5826 -52.5596 76° East 526 605 37,000  Level FlightAware Transoceanic
Mon 09:20:00 PM 43.6167 -52.3640 77° East 526 605 37,000  Level FlightAware Transoceanic
Mon 09:21:00 PM 43.6505 -52.1682 77° East 526 605 37,000  Level FlightAware Transoceanic
Mon 09:22:00 PM 43.6840 -51.9721 77° East 526 605 37,000  Level FlightAware Transoceanic
Mon 09:23:00 PM 43.7171 -51.7759 77° East 526 605 37,000  Level FlightAware Transoceanic
Mon 09:24:00 PM 43.7499 -51.5794 77° East 526 605 37,000  Level FlightAware Transoceanic
Mon 09:25:00 PM 43.7823 -51.3827 77° East 526 605 37,000  Level FlightAware Transoceanic
Mon 09:26:00 PM 43.8145 -51.1858 77° East 526 605 37,000  Level FlightAware Transoceanic
Mon 09:27:00 PM 43.8462 -50.9887 77° East 526 605 37,000  Level FlightAware Transoceanic
Mon 09:28:00 PM 43.8777 -50.7914 78° East 526 605 37,000  Level FlightAware Transoceanic
Mon 09:29:00 PM 43.9088 -50.5938 78° East 526 605 37,000  Level FlightAware Transoceanic
Mon 09:30:00 PM 43.9395 -50.3961 78° East 526 605 37,000  Level FlightAware Transoceanic
Mon 09:31:00 PM 43.9699 -50.1981 78° East 526 605 37,000  Level FlightAware Transoceanic
Mon 09:32:00 PM 44.0000 -50.0000 71° East 526 605 37,000  Level FlightAware Transoceanic
Mon 09:33:00 PM 44.0474 -49.8109 71° East 526 605 37,000  Level FlightAware Transoceanic
Mon 09:34:00 PM 44.0945 -49.6216 71° East 526 605 37,000  Level FlightAware Transoceanic
Mon 09:35:00 PM 44.1413 -49.4319 71° East 526 605 37,000  Level FlightAware Transoceanic
Mon 09:35:44 PM 44.0000 -50.0000 71° East 510 587 37,000  Level New York Oceanic (ODAPS)
Mon 09:36:00 PM 44.1878 -49.2420 71° East 526 605 37,000  Level FlightAware Transoceanic
Mon 09:37:00 PM 44.2340 -49.0517 71° East 526 605 37,000  Level FlightAware Transoceanic
Mon 09:38:00 PM 44.2798 -48.8611 71° East 526 605 37,000  Level FlightAware Transoceanic
Mon 09:39:00 PM 44.3253 -48.6703 72° East 526 605 37,000  Level FlightAware Transoceanic
Mon 09:40:00 PM 44.3705 -48.4791 72° East 526 605 37,000  Level FlightAware Transoceanic
Mon 09:41:00 PM 44.4154 -48.2877 72° East 526 605 37,000  Level FlightAware Transoceanic
Mon 09:42:00 PM 44.4515 -48.1329 72° East 510 587 37,000  Level FlightAware Transoceanic
Mon 09:43:00 PM 44.4949 -47.9446 72° East 510 587 37,000  Level FlightAware Transoceanic
Mon 09:44:00 PM 44.5381 -47.7560 72° East 510 587 37,000  Level FlightAware Transoceanic
Mon 09:45:00 PM 44.5809 -47.5672 72° East 510 587 37,000  Level FlightAware Transoceanic
Mon 09:46:00 PM 44.6235 -47.3781 73° East 510 587 37,000  Level FlightAware Transoceanic
Mon 09:47:00 PM 44.6657 -47.1887 73° East 510 587 37,000  Level FlightAware Transoceanic
Mon 09:48:00 PM 44.7076 -46.9990 73° East 510 587 37,000  Level FlightAware Transoceanic
Mon 09:49:00 PM 44.7492 -46.8091 73° East 510 587 37,000  Level FlightAware Transoceanic
Mon 09:50:00 PM 44.7904 -46.6189 73° East 510 587 37,000  Level FlightAware Transoceanic
Mon 09:51:00 PM 44.8314 -46.4284 73° East 510 587 37,000  Level FlightAware Transoceanic
Mon 09:52:00 PM 44.8720 -46.2376 73° East 510 587 37,000  Level FlightAware Transoceanic
Mon 09:53:00 PM 44.9124 -46.0466 73° East 510 587 37,000  Level FlightAware Transoceanic
Mon 09:54:00 PM 44.9524 -45.8553 74° East 510 587 37,000  Level FlightAware Transoceanic
Mon 09:55:00 PM 44.9921 -45.6637 74° East 510 587 37,000  Level FlightAware Transoceanic
Mon 09:56:00 PM 45.0314 -45.4719 74° East 510 587 37,000  Level FlightAware Transoceanic
Mon 09:57:00 PM 45.0705 -45.2798 74° East 510 587 37,000  Level FlightAware Transoceanic
Mon 09:58:00 PM 45.1092 -45.0875 74° East 510 587 37,000  Level FlightAware Transoceanic
Mon 09:59:00 PM 45.1476 -44.8949 74° East 510 587 37,000  Level FlightAware Transoceanic
Mon 10:00:00 PM 45.1857 -44.7020 74° East 510 587 37,000  Level FlightAware Transoceanic
Mon 10:01:00 PM 45.2234 -44.5089 75° East 510 587 37,000  Level FlightAware Transoceanic
Mon 10:02:00 PM 45.2608 -44.3155 75° East 510 587 37,000  Level FlightAware Transoceanic
Mon 10:03:00 PM 45.2979 -44.1219 75° East 510 587 37,000  Level FlightAware Transoceanic
Mon 10:04:00 PM 45.3347 -43.9280 75° East 510 587 37,000  Level FlightAware Transoceanic
Mon 10:05:00 PM 45.3711 -43.7339 75° East 510 587 37,000  Level FlightAware Transoceanic
Mon 10:06:00 PM 45.4072 -43.5395 75° East 510 587 37,000  Level FlightAware Transoceanic
Mon 10:07:00 PM 45.4430 -43.3449 75° East 510 587 37,000  Level FlightAware Transoceanic
Mon 10:08:00 PM 45.4785 -43.1500 76° East 510 587 37,000  Level FlightAware Transoceanic
Mon 10:09:00 PM 45.5136 -42.9549 76° East 510 587 37,000  Level FlightAware Transoceanic
Mon 10:10:00 PM 45.5484 -42.7595 76° East 510 587 37,000  Level FlightAware Transoceanic
Mon 10:11:00 PM 45.5828 -42.5639 76° East 510 587 37,000  Level FlightAware Transoceanic
Mon 10:12:00 PM 45.6170 -42.3681 76° East 510 587 37,000  Level FlightAware Transoceanic
Mon 10:13:00 PM 45.6507 -42.1720 76° East 510 587 37,000  Level FlightAware Transoceanic
Mon 10:14:00 PM 45.6842 -41.9757 76° East 510 587 37,000  Level FlightAware Transoceanic
Mon 10:15:00 PM 45.7173 -41.7791 77° East 510 587 37,000  Level FlightAware Transoceanic
Mon 10:16:00 PM 45.7501 -41.5824 77° East 510 587 37,000  Level FlightAware Transoceanic
Mon 10:17:00 PM 45.7825 -41.3853 77° East 510 587 37,000  Level FlightAware Transoceanic
Mon 10:18:00 PM 45.8146 -41.1881 77° East 510 587 37,000  Level FlightAware Transoceanic
Mon 10:19:00 PM 45.8463 -40.9907 77° East 510 587 37,000  Level FlightAware Transoceanic
Mon 10:20:00 PM 45.8778 -40.7930 77° East 510 587 37,000  Level FlightAware Transoceanic
Mon 10:21:00 PM 45.9088 -40.5951 77° East 510 587 37,000  Level FlightAware Transoceanic
Mon 10:22:00 PM 45.9396 -40.3969 78° East 510 587 37,000  Level FlightAware Transoceanic
Mon 10:23:00 PM 45.9700 -40.1986 78° East 510 587 37,000  Level FlightAware Transoceanic
Mon 10:24:00 PM 46.0000 -40.0000 78° East 510 587 37,000  Level FlightAware Transoceanic
Mon 10:25:00 PM 46.0279 -39.8079 78° East 510 587 37,000  Level FlightAware Transoceanic
Mon 10:25:35 PM 46.0000 -40.0000 78° East 490 564 37,000  Level ETMS Enhanced Traffic Management System
Mon 10:26:00 PM 46.0555 -39.6156 78° East 510 587 37,000  Level FlightAware Transoceanic
Mon 10:27:00 PM 46.0827 -39.4231 79° East 510 587 37,000  Level FlightAware Transoceanic
Mon 10:28:00 PM 46.1096 -39.2305 79° East 510 587 37,000  Level FlightAware Transoceanic
Mon 10:29:00 PM 46.1362 -39.0376 79° East 510 587 37,000  Level FlightAware Transoceanic
Mon 10:30:00 PM 46.1625 -38.8446 79° East 510 587 37,000  Level FlightAware Transoceanic
Mon 10:31:00 PM 46.2141 -38.4579 79° East 490 564 37,000  Level FlightAware Transoceanic
Mon 10:32:00 PM 46.2393 -38.2644 79° East 490 564 37,000  Level FlightAware Transoceanic
Mon 10:33:00 PM 46.2643 -38.0706 80° East 490 564 37,000  Level FlightAware Transoceanic
Mon 10:34:00 PM 46.2890 -37.8767 80° East 490 564 37,000  Level FlightAware Transoceanic
Mon 10:35:00 PM 46.3133 -37.6825 80° East 490 564 37,000  Level FlightAware Transoceanic
Mon 10:36:00 PM 46.3372 -37.4883 80° East 490 564 37,000  Level FlightAware Transoceanic
Mon 10:37:00 PM 46.3609 -37.2938 80° East 490 564 37,000  Level FlightAware Transoceanic
Mon 10:38:00 PM 46.3842 -37.0992 80° East 490 564 37,000  Level FlightAware Transoceanic
Mon 10:39:00 PM 46.4072 -36.9044 80° East 490 564 37,000  Level FlightAware Transoceanic
Mon 10:40:00 PM 46.4299 -36.7094 80° East 490 564 37,000  Level FlightAware Transoceanic
Mon 10:41:00 PM 46.4522 -36.5143 81° East 490 564 37,000  Level FlightAware Transoceanic
Mon 10:42:00 PM 46.4742 -36.3191 81° East 490 564 37,000  Level FlightAware Transoceanic
Mon 10:43:00 PM 46.4959 -36.1236 81° East 490 564 37,000  Level FlightAware Transoceanic
Mon 10:44:00 PM 46.5172 -35.9281 81° East 490 564 37,000  Level FlightAware Transoceanic
Mon 10:45:00 PM 46.5382 -35.7323 81° East 490 564 37,000  Level FlightAware Transoceanic
Mon 10:46:00 PM 46.5589 -35.5364 81° East 490 564 37,000  Level FlightAware Transoceanic
Mon 10:47:00 PM 46.5792 -35.3404 81° East 490 564 37,000  Level FlightAware Transoceanic
Mon 10:48:00 PM 46.5992 -35.1442 82° East 490 564 37,000  Level FlightAware Transoceanic
Mon 10:49:00 PM 46.6188 -34.9479 82° East 490 564 37,000  Level FlightAware Transoceanic
Mon 10:50:00 PM 46.6382 -34.7515 82° East 490 564 37,000  Level FlightAware Transoceanic
Mon 10:51:00 PM 46.6572 -34.5549 82° East 490 564 37,000  Level FlightAware Transoceanic
Mon 10:52:00 PM 46.6758 -34.3581 82° East 490 564 37,000  Level FlightAware Transoceanic
Mon 10:53:00 PM 46.6941 -34.1613 82° East 490 564 37,000  Level FlightAware Transoceanic
Mon 10:54:00 PM 46.7121 -33.9642 82° East 490 564 37,000  Level FlightAware Transoceanic
Mon 10:55:00 PM 46.7297 -33.7671 83° East 490 564 37,000  Level FlightAware Transoceanic
Mon 10:56:00 PM 46.7470 -33.5699 83° East 490 564 37,000  Level FlightAware Transoceanic
Mon 10:57:00 PM 46.7640 -33.3725 83° East 490 564 37,000  Level FlightAware Transoceanic
Mon 10:58:00 PM 46.7806 -33.1749 83° East 490 564 37,000  Level FlightAware Transoceanic
Mon 10:59:00 PM 46.7969 -32.9773 83° East 490 564 37,000  Level FlightAware Transoceanic
Mon 11:00:00 PM 46.8128 -32.7796 83° East 490 564 37,000  Level FlightAware Transoceanic
Mon 11:01:00 PM 46.8284 -32.5817 84° East 490 564 37,000  Level FlightAware Transoceanic
Mon 11:02:00 PM 46.8437 -32.3837 84° East 490 564 37,000  Level FlightAware Transoceanic
Mon 11:03:00 PM 46.8586 -32.1856 84° East 490 564 37,000  Level FlightAware Transoceanic
Mon 11:04:00 PM 46.8731 -31.9874 84° East 490 564 37,000  Level FlightAware Transoceanic
Mon 11:05:00 PM 46.8874 -31.7891 84° East 490 564 37,000  Level FlightAware Transoceanic
Mon 11:06:00 PM 46.9013 -31.5907 84° East 490 564 37,000  Level FlightAware Transoceanic
Mon 11:07:00 PM 46.9148 -31.3922 84° East 490 564 37,000  Level FlightAware Transoceanic
Mon 11:08:00 PM 46.9280 -31.1936 85° East 490 564 37,000  Level FlightAware Transoceanic
Mon 11:09:00 PM 46.9409 -30.9949 85° East 490 564 37,000  Level FlightAware Transoceanic
Mon 11:10:00 PM 46.9534 -30.7961 85° East 490 564 37,000  Level FlightAware Transoceanic
Mon 11:11:00 PM 46.9656 -30.5972 85° East 490 564 37,000  Level FlightAware Transoceanic
Mon 11:12:00 PM 46.9774 -30.3982 85° East 490 564 37,000  Level FlightAware Transoceanic
Mon 11:13:00 PM 46.9889 -30.1992 85° East 490 564 37,000  Level FlightAware Transoceanic
Mon 11:14:00 PM 47.0000 -30.0000 86° East 490 564 37,000  Level FlightAware Transoceanic
Mon 11:15:00 PM 47.1306 -30.0000 North  Level FlightAware Approximate
Mon 11:16:00 PM 47.1087 -29.8108 87° East  Level Estimated
Mon 11:16:00 PM 47.0000 -30.0000 86° East 462 532 37,000  Level ETMS Enhanced Traffic Management System
Mon 11:17:00 PM 47.1069 -29.6198 91° East  Level FlightAware Approximate
Mon 11:18:00 PM 47.1049 -29.4289 91° East  Level FlightAware Approximate
Mon 11:19:00 PM 47.1026 -29.2380 91° East  Level FlightAware Approximate
Mon 11:20:00 PM 47.0999 -29.0471 91° East  Level FlightAware Approximate
Mon 11:21:00 PM 47.0970 -28.8562 91° East  Level FlightAware Approximate
Mon 11:22:00 PM 47.0372 -28.8574 87° East  Level FlightAware Approximate
Mon 11:23:00 PM 47.0423 -28.6668 88° East  Level FlightAware Approximate
Mon 11:24:00 PM 47.0471 -28.4762 88° East  Level FlightAware Approximate
Mon 11:25:00 PM 47.0516 -28.2856 88° East  Level FlightAware Approximate
Mon 11:26:00 PM 47.0558 -28.0949 88° East  Level FlightAware Approximate
Mon 11:27:00 PM 47.0596 -27.9042 88° East  Level FlightAware Approximate
Mon 11:28:00 PM 47.0631 -27.7134 88° East  Level FlightAware Approximate
Mon 11:29:00 PM 47.0663 -27.5227 89° East  Level FlightAware Approximate
Mon 11:30:00 PM 47.0705 -27.3320 88° East  Level FlightAware Approximate
Mon 11:31:00 PM 47.0746 -27.1412 88° East  Level FlightAware Approximate
Mon 11:32:00 PM 47.0784 -26.9505 88° East  Level FlightAware Approximate
Mon 11:33:00 PM 47.0819 -26.7597 88° East  Level FlightAware Approximate
Mon 11:34:00 PM 47.0850 -26.5688 89° East  Level FlightAware Approximate
Mon 11:35:00 PM 47.0879 -26.3780 89° East  Level FlightAware Approximate
Mon 11:36:00 PM 47.0904 -26.1871 89° East  Level FlightAware Approximate
Mon 11:37:00 PM 47.0926 -25.9962 89° East  Level FlightAware Approximate
Mon 11:38:00 PM 47.0945 -25.8053 89° East  Level FlightAware Approximate
Mon 11:39:00 PM 47.0960 -25.6144 89° East  Level FlightAware Approximate
Mon 11:40:00 PM 47.0973 -25.4235 89° East  Level FlightAware Approximate
Mon 11:41:00 PM 47.0982 -25.2326 90° East  Level FlightAware Approximate
Mon 11:42:00 PM 47.0988 -25.0417 90° East  Level FlightAware Approximate
Mon 11:43:00 PM 47.0991 -24.8507 90° East  Level FlightAware Approximate
Mon 11:44:00 PM 47.0991 -24.6598 90° East  Level FlightAware Approximate
Mon 11:45:00 PM 47.0987 -24.4688 90° East  Level FlightAware Approximate
Mon 11:46:00 PM 47.0981 -24.2779 90° East  Level FlightAware Approximate
Mon 11:47:00 PM 47.0971 -24.0870 90° East  Level FlightAware Approximate
Mon 11:48:00 PM 47.0958 -23.8960 90° East  Level FlightAware Approximate
Mon 11:49:00 PM 47.0942 -23.7051 91° East  Level FlightAware Approximate
Mon 11:50:00 PM 47.0923 -23.5142 91° East  Level FlightAware Approximate
Mon 11:51:00 PM 47.0900 -23.3234 91° East  Level FlightAware Approximate
Mon 11:52:00 PM 47.0875 -23.1325 91° East  Level FlightAware Approximate
Mon 11:53:00 PM 47.0846 -22.9417 91° East  Level FlightAware Approximate
Mon 11:54:00 PM 47.0814 -22.7509 91° East  Level FlightAware Approximate
Mon 11:55:00 PM 47.0779 -22.5600 91° East  Level FlightAware Approximate
Mon 11:56:00 PM 47.0740 -22.3693 92° East  Level FlightAware Approximate
Mon 11:57:00 PM 47.0699 -22.1785 92° East  Level FlightAware Approximate
Mon 11:58:00 PM 47.0654 -21.9878 92° East  Level FlightAware Approximate
Mon 11:59:00 PM 47.0606 -21.7971 92° East  Level FlightAware Approximate
Tue 12:00:00 AM 47.0555 -21.6065 92° East  Level FlightAware Approximate
Tue 12:01:00 AM 47.0501 -21.4159 92° East  Level FlightAware Approximate
Tue 12:02:00 AM 47.0444 -21.2253 92° East  Level FlightAware Approximate
Tue 12:03:00 AM 47.0384 -21.0348 93° East  Level FlightAware Approximate
Tue 12:04:00 AM 47.0320 -20.8443 93° East  Level FlightAware Approximate
Tue 12:05:00 AM 47.0253 -20.6539 93° East  Level FlightAware Approximate
Tue 12:06:00 AM 47.0183 -20.4635 93° East  Level FlightAware Approximate
Tue 12:07:00 AM 47.0110 -20.2732 93° East  Level FlightAware Approximate
Tue 12:08:00 AM 47.0034 -20.0829 93° East  Level FlightAware Approximate
Tue 12:09:00 AM 46.9723 -19.9005 112° Southeast  Level FlightAware Approximate
Tue 12:10:00 AM 46.9229 -19.7244 112° Southeast  Level FlightAware Approximate
Tue 12:11:00 AM 46.8732 -19.5486 112° Southeast  Level FlightAware Approximate
Tue 12:12:00 AM 46.8233 -19.3731 113° Southeast  Level FlightAware Approximate
Tue 12:13:00 AM 46.7733 -19.1984 113° Southeast  Level FlightAware Approximate
Tue 12:14:00 AM 46.7229 -19.0240 113° Southeast  Level FlightAware Approximate
Tue 12:15:00 AM 46.6723 -18.8500 113° Southeast  Level FlightAware Approximate
Tue 12:16:00 AM 46.6213 -18.6763 113° Southeast  Level FlightAware Approximate
Tue 12:17:00 AM 46.5696 -18.5033 113° Southeast  Level FlightAware Approximate
Tue 12:18:00 AM 46.5177 -18.3305 114° Southeast  Level FlightAware Approximate
Tue 12:19:00 AM 46.4655 -18.1581 114° Southeast  Level FlightAware Approximate
Tue 12:20:00 AM 46.4131 -17.9861 114° Southeast  Level FlightAware Approximate
Tue 12:21:00 AM 46.3603 -17.8144 114° Southeast  Level FlightAware Approximate
Tue 12:22:00 AM 46.3074 -17.6430 114° Southeast  Level FlightAware Approximate
Tue 12:23:00 AM 46.2541 -17.4719 114° Southeast  Level FlightAware Approximate
Tue 12:24:00 AM 46.2006 -17.3012 114° Southeast  Level FlightAware Approximate
Tue 12:25:00 AM 46.1469 -17.1308 114° Southeast  Level FlightAware Approximate
Tue 12:26:00 AM 46.0929 -16.9607 115° Southeast  Level FlightAware Approximate
Tue 12:27:00 AM 46.0387 -16.7910 115° Southeast  Level FlightAware Approximate
Tue 12:28:00 AM 45.9842 -16.6216 115° Southeast  Level FlightAware Approximate
Tue 12:29:00 AM 45.9295 -16.4525 115° Southeast  Level FlightAware Approximate
Tue 12:30:00 AM 45.8745 -16.2838 115° Southeast  Level FlightAware Approximate
Tue 12:31:00 AM 45.8192 -16.1154 115° Southeast  Level FlightAware Approximate
Tue 12:32:00 AM 45.7637 -15.9473 115° Southeast  Level FlightAware Approximate
Tue 12:33:00 AM 45.7080 -15.7796 115° Southeast  Level FlightAware Approximate
Tue 12:34:00 AM 45.6520 -15.6122 116° Southeast  Level FlightAware Approximate
Tue 12:35:00 AM 45.5958 -15.4451 116° Southeast  Level FlightAware Approximate
Tue 12:36:00 AM 45.5394 -15.2784 116° Southeast  Level FlightAware Approximate
Tue 12:37:00 AM 45.4827 -15.1120 116° Southeast  Level FlightAware Approximate
Tue 12:38:00 AM 45.4260 -14.9457 116° Southeast  Level FlightAware Approximate
Tue 12:39:00 AM 45.3696 -14.7795 116° Southeast  Level FlightAware Approximate
Tue 12:40:00 AM 45.3129 -14.6136 116° Southeast  Level FlightAware Approximate
Tue 12:41:00 AM 45.2560 -14.4480 116° Southeast  Level FlightAware Approximate
Tue 12:42:00 AM 45.1989 -14.2827 116° Southeast  Level FlightAware Approximate
Tue 12:43:00 AM 45.1415 -14.1178 116° Southeast  Level FlightAware Approximate
Tue 12:44:00 AM 45.0839 -13.9532 116° Southeast  Level FlightAware Approximate
Tue 12:45:00 AM 45.0260 -13.7890 116° Southeast  Level FlightAware Approximate
Tue 12:46:00 AM 44.9679 -13.6250 117° Southeast  Level FlightAware Approximate
Tue 12:47:00 AM 44.9096 -13.4615 117° Southeast  Level FlightAware Approximate
Tue 12:48:00 AM 44.8511 -13.2982 117° Southeast  Level FlightAware Approximate
Tue 12:49:00 AM 44.7923 -13.1353 117° Southeast  Level FlightAware Approximate
Tue 12:49:37 AM 45.2910 -13.2270 117° Southeast 455 524 37,000  Level FlightAware ADS-B
Tue 12:50:00 AM 44.7332 -12.9727 117° Southeast  Level FlightAware Approximate
Tue 12:50:12 AM 45.2650 -13.1350 112° Southeast 455 524 37,000  Level FlightAware ADS-B
Tue 12:50:52 AM 45.2380 -13.0410 112° Southeast 455 524 37,000  Level FlightAware ADS-B
Tue 12:51:42 AM 45.1920 -12.8820 112° Southeast 455 524 37,000  Level FlightAware ADS-B
Tue 12:52:22 AM 45.1640 -12.7840 112° Southeast 455 524 37,000  Level FlightAware ADS-B
Tue 12:53:02 AM 45.1370 -12.6900 112° Southeast 455 524 37,000  Level FlightAware ADS-B
Tue 12:53:12 AM 45.1900 -12.8730 292° West 37,000  Level FlightAware ADS-B
Tue 12:53:32 AM 45.1010 -12.5690 112° Southeast 456 525 37,000  Level FlightAware ADS-B
Tue 12:54:17 AM 45.0670 -12.4540 113° Southeast 456 525 37,000  Level FlightAware ADS-B
Tue 12:54:57 AM 45.0400 -12.3600 112° Southeast 456 525 37,000  Level FlightAware ADS-B
Tue 12:55:37 AM 45.0010 -12.2280 113° Southeast 458 527 37,000  Level FlightAware ADS-B
Tue 12:56:22 AM 44.9620 -12.1130 116° Southeast 457 526 37,000  Level FlightAware ADS-B
Tue 12:57:02 AM 44.9120 -12.0170 126° Southeast 457 526 37,000  Level FlightAware ADS-B
Tue 12:57:42 AM 44.8590 -11.9200 128° Southeast 457 526 37,000  Level FlightAware ADS-B
Tue 12:58:27 AM 44.8000 -11.8130 128° Southeast 458 527 37,000  Level FlightAware ADS-B
Tue 12:59:07 AM 44.7460 -11.7160 128° Southeast 457 526 37,000  Level FlightAware ADS-B
Tue 12:59:52 AM 44.6920 -11.6180 128° Southeast 457 526 37,000  Level FlightAware ADS-B
Tue 01:00:32 AM 44.6480 -11.5370 127° Southeast 458 527 37,000  Level FlightAware ADS-B
Tue 01:01:17 AM 44.5790 -11.4130 128° Southeast 458 527 37,000  Level FlightAware ADS-B
Tue 01:01:57 AM 44.5310 -11.3260 128° Southeast 458 527 37,000  Level FlightAware ADS-B
Tue 01:02:37 AM 44.4780 -11.2310 128° Southeast 458 527 37,000  Level FlightAware ADS-B
Tue 01:03:22 AM 44.4170 -11.1220 128° Southeast 459 528 37,000  Level FlightAware ADS-B
Tue 01:05:00 AM 44.3025 -10.8719 123° Southeast  Level Estimated
Tue 01:05:12 AM 44.2740 -10.8670 123° Southeast 460 529 37,000  Level FlightAware ADS-B
Tue 01:05:57 AM 44.2130 -10.7590 128° Southeast 460 529 37,000  Level FlightAware ADS-B
Tue 01:07:17 AM 44.1200 -10.5930 128° Southeast 460 529 37,000  Level FlightAware ADS-B
Tue 01:08:02 AM 44.0520 -10.4740 128° Southeast 460 529 37,000  Level FlightAware ADS-B
Tue 01:08:42 AM 43.9960 -10.3750 128° Southeast 459 528 37,000  Level FlightAware ADS-B
Tue 01:09:17 AM 43.9500 -10.2950 129° Southeast 459 528 37,000  Level FlightAware ADS-B
Tue 01:10:47 AM 43.8310 -10.0860 128° Southeast 459 528 37,000  Level FlightAware ADS-B
Tue 01:11:32 AM 43.7720 -9.9840 129° Southeast 460 529 37,000  Level FlightAware ADS-B
Tue 01:12:12 AM 43.7190 -9.8900 128° Southeast 462 532 37,000  Level FlightAware ADS-B
Tue 01:12:57 AM 43.6620 -9.7930 129° Southeast 462 532 37,000  Level FlightAware ADS-B
Tue 01:13:32 AM 43.6160 -9.7120 128° Southeast 463 533 37,000  Level FlightAware ADS-B
Tue 01:14:17 AM 43.5520 -9.6010 128° Southeast 464 534 37,000  Level FlightAware ADS-B
Tue 01:14:57 AM 43.4980 -9.5090 129° Southeast 464 534 37,000  Level FlightAware ADS-B
Tue 01:15:42 AM 43.4420 -9.4120 128° Southeast 464 534 37,000  Level FlightAware ADS-B
Tue 01:16:27 AM 43.3780 -9.3030 129° Southeast 463 533 37,000  Level FlightAware ADS-B
Tue 01:17:07 AM 43.3300 -9.2210 129° Southeast 463 533 37,000  Level FlightAware ADS-B
Tue 01:17:47 AM 43.2710 -9.1190 128° Southeast 463 533 37,000  Level FlightAware ADS-B
Tue 01:18:32 AM 43.2160 -9.0270 129° Southeast 462 532 37,000  Level FlightAware ADS-B
Tue 01:19:12 AM 43.1610 -8.9330 129° Southeast 462 532 37,000  Level FlightAware ADS-B
Tue 01:19:52 AM 43.1040 -8.8380 129° Southeast 461 531 37,000  Level FlightAware ADS-B
Tue 01:20:27 AM 43.0610 -8.7640 128° Southeast 460 529 37,000  Level FlightAware ADS-B
Tue 01:21:17 AM 42.9930 -8.6500 129° Southeast 459 528 37,000  Level FlightAware ADS-B
Tue 01:22:02 AM 42.9300 -8.5430 129° Southeast 459 528 37,000  Level FlightAware ADS-B
Tue 01:22:42 AM 42.8820 -8.4470 124° Southeast 458 527 37,000  Level FlightAware ADS-B
Tue 01:23:22 AM 42.8350 -8.3480 123° Southeast 458 527 37,000  Level FlightAware ADS-B
Tue 01:24:07 AM 42.7850 -8.2400 122° Southeast 458 527 37,000  Level FlightAware ADS-B
Tue 01:24:47 AM 42.7390 -8.1420 123° Southeast 458 527 37,000  Level FlightAware ADS-B
Tue 01:25:27 AM 42.6960 -8.0500 122° Southeast 458 527 37,000  Level FlightAware ADS-B
Tue 01:26:12 AM 42.6450 -7.9420 123° Southeast 458 527 37,000  Level FlightAware ADS-B
Tue 01:26:57 AM 42.5920 -7.8310 123° Southeast 460 529 37,000  Level FlightAware ADS-B
Tue 01:27:32 AM 42.5510 -7.7450 123° Southeast 460 529 37,000  Level FlightAware ADS-B
Tue 01:28:17 AM 42.4990 -7.6340 122° Southeast 459 528 37,000  Level FlightAware ADS-B
Tue 01:29:02 AM 42.4480 -7.5280 123° Southeast 461 531 37,000  Level FlightAware ADS-B
Tue 01:29:42 AM 42.4000 -7.4300 124° Southeast 463 533 37,000  Level FlightAware ADS-B
Tue 01:30:27 AM 42.3490 -7.3230 123° Southeast 462 532 37,000  Level FlightAware ADS-B
Tue 01:31:07 AM 42.3040 -7.2300 123° Southeast 461 531 37,000 -225 Level FlightAware ADS-B
Tue 01:31:47 AM 42.2560 -7.1310 123° Southeast 457 526 36,700 -1,059 Descending FlightAware ADS-B
Tue 01:32:32 AM 42.2040 -7.0250 123° Southeast 460 529 35,500 -1,553 Descending FlightAware ADS-B
Tue 01:33:12 AM 42.1560 -6.9270 123° Southeast 463 533 34,500 -1,500 Descending FlightAware ADS-B
Tue 01:33:52 AM 42.1090 -6.8330 124° Southeast 464 534 33,500 -1,412 Descending FlightAware ADS-B
Tue 01:34:37 AM 42.0550 -6.7240 124° Southeast 465 535 32,500 -988 Descending FlightAware ADS-B
Tue 01:35:17 AM 42.0070 -6.6280 124° Southeast 463 533 32,100 -353 Descending FlightAware ADS-B
Tue 01:36:02 AM 41.9540 -6.5220 124° Southeast 460 529 32,000 -71 Descending FlightAware ADS-B
Tue 01:36:42 AM 41.9080 -6.4300 124° Southeast 461 531 32,000  Level FlightAware ADS-B
Tue 01:37:27 AM 41.8540 -6.3220 124° Southeast 461 531 32,000  Level FlightAware ADS-B
Tue 01:38:07 AM 41.8060 -6.2270 124° Southeast 462 532 32,000  Level FlightAware ADS-B
Tue 01:38:47 AM 41.7570 -6.1320 125° Southeast 462 532 32,000  Level FlightAware ADS-B
Tue 01:39:32 AM 41.7040 -6.0280 124° Southeast 461 531 32,000 -141 Level FlightAware ADS-B
Tue 01:40:12 AM 41.6560 -5.9340 124° Southeast 459 528 31,800 -776 Descending FlightAware ADS-B
Tue 01:40:57 AM 41.6010 -5.8270 124° Southeast 461 531 30,900 -1,271 Descending FlightAware ADS-B
Tue 01:41:37 AM 41.5520 -5.7350 125° Southeast 469 540 30,000 -1,350 Descending FlightAware ADS-B
Tue 01:42:17 AM 41.4930 -5.6490 132° Southeast 478 550 29,100 -1,129 Descending FlightAware ADS-B
Tue 01:43:02 AM 41.4210 -5.5600 137° Southeast 473 544 28,400 -1,200 Descending FlightAware ADS-B
Tue 01:43:42 AM 41.3580 -5.4840 138° Southeast 470 541 27,400 -1,425 Descending FlightAware ADS-B
Tue 01:44:22 AM 41.2930 -5.4050 138° Southeast 461 531 26,500 -1,412 Descending FlightAware ADS-B
Tue 01:45:07 AM 41.2230 -5.3200 138° Southeast 456 525 25,400 -1,482 Descending FlightAware ADS-B
Tue 01:45:47 AM 41.1610 -5.2440 137° Southeast 450 518 24,400 -1,341 Descending FlightAware ADS-B
Tue 01:46:32 AM 41.0930 -5.1610 137° Southeast 441 507 23,500 -1,200 Descending FlightAware ADS-B
Tue 01:47:12 AM 41.0340 -5.0900 138° Southeast 432 497 22,700 -1,341 Descending FlightAware ADS-B
Tue 01:47:57 AM 40.9670 -5.0100 138° Southeast 427 491 21,600 -1,412 Descending FlightAware ADS-B
Tue 01:48:37 AM 40.9100 -4.9420 138° Southeast 422 486 20,700 -1,425 Descending FlightAware ADS-B
Tue 01:49:17 AM 40.8520 -4.8730 138° Southeast 417 480 19,700 -1,412 Descending FlightAware ADS-B
Tue 01:50:02 AM 40.7890 -4.7980 138° Southeast 412 474 18,700 -1,412 Descending FlightAware ADS-B
Tue 01:50:42 AM 40.7320 -4.7310 138° Southeast 397 457 17,700 -1,341 Descending FlightAware ADS-B
Tue 01:51:27 AM 40.6760 -4.6630 137° Southeast 367 422 16,800 -1,200 Descending FlightAware ADS-B
Tue 01:52:07 AM 40.6370 -4.5940 127° Southeast 330 380 16,000 -1,050 Descending FlightAware ADS-B
Tue 01:52:47 AM 40.6100 -4.5240 117° Southeast 306 352 15,400 -1,129 Descending FlightAware ADS-B
Tue 01:53:32 AM 40.5820 -4.4510 117° Southeast 295 339 14,400 -1,482 Descending FlightAware ADS-B
Tue 01:54:12 AM 40.5580 -4.3880 117° Southeast 292 336 13,300 -1,553 Descending FlightAware ADS-B
Tue 01:54:57 AM 40.5300 -4.3180 118° Southeast 288 331 12,200 -1,482 Descending FlightAware ADS-B
Tue 01:55:37 AM 40.5070 -4.2570 116° Southeast 283 326 11,200 -1,500 Descending FlightAware ADS-B
Tue 01:56:17 AM 40.4830 -4.1960 117° Southeast 279 321 10,200 -1,457 Descending FlightAware ADS-B
Tue 01:56:47 AM 40.4670 -4.1550 117° Southeast 276 318 9,500 -1,500 Descending FlightAware ADS-B
Tue 01:57:17 AM 40.4470 -4.1050 118° Southeast 272 313 8,700 -1,527 Descending FlightAware ADS-B
Tue 01:57:42 AM 40.4340 -4.0700 116° Southeast 268 308 8,100 -982 Descending FlightAware ADS-B
Tue 01:58:12 AM 40.4160 -4.0260 118° Southeast 263 303 7,800 -327 Descending FlightAware ADS-B
Tue 01:58:37 AM 40.4030 -3.9930 117° Southeast 262 302 7,800  Level FlightAware ADS-B
Tue 01:59:07 AM 40.3860 -3.9510 118° Southeast 262 302 7,800  Level FlightAware ADS-B
Tue 01:59:22 AM 40.3770 -3.9280 117° Southeast 262 302 7,800 -300 Level FlightAware ADS-B
Tue 01:59:47 AM 40.3640 -3.8940 117° Southeast 260 299 7,600 -982 Descending FlightAware ADS-B
Tue 02:00:17 AM 40.3470 -3.8520 118° Southeast 259 298 6,900 -1,418 Descending FlightAware ADS-B
Tue 02:00:42 AM 40.3320 -3.8150 118° Southeast 257 296 6,300 -1,309 Descending FlightAware ADS-B
Tue 02:01:12 AM 40.3160 -3.7750 118° Southeast 250 288 5,700 -1,100 Descending FlightAware ADS-B
Tue 02:01:42 AM 40.3010 -3.7360 117° Southeast 242 278 5,200 -873 Descending FlightAware ADS-B
Tue 02:02:07 AM 40.2890 -3.7040 116° Southeast 244 281 4,900 -436 Descending FlightAware ADS-B
Tue 02:02:37 AM 40.2740 -3.6650 117° Southeast 242 278 4,800 -109 Descending FlightAware ADS-B
Tue 02:03:02 AM 40.2610 -3.6310 117° Southeast 222 255 4,800  Level FlightAware ADS-B
Tue 02:03:17 AM 40.2550 -3.6140 115° Southeast 217 250 4,800  Level FlightAware ADS-B
Tue 02:03:47 AM 40.2410 -3.5780 117° Southeast 217 250 4,800  Level FlightAware ADS-B
Tue 02:04:17 AM 40.2300 -3.5430 112° Southeast 204 235 4,800  Level FlightAware ADS-B
Tue 02:04:42 AM 40.2380 -3.5150 69° East 187 215 4,800  Level FlightAware ADS-B
Tue 02:04:57 AM 40.2450 -3.5020 55° Northeast 188 216 4,800  Level FlightAware ADS-B
Tue 02:05:12 AM 40.2570 -3.4940 27° Northeast 199 229 4,800  Level FlightAware ADS-B
Tue 02:05:22 AM 40.2660 -3.4940 360° North 206 237 4,800 -300 Level FlightAware ADS-B
Tue 02:05:52 AM 40.2940 -3.4980 354° North 204 235 4,600 -600 Descending FlightAware ADS-B
Tue 02:06:22 AM 40.3240 -3.5030 353° North 198 228 4,200 -667 Descending FlightAware ADS-B
Tue 02:06:37 AM 40.3360 -3.5090 339° North 199 229 4,100 -600 Descending FlightAware ADS-B
Tue 02:07:02 AM 40.3550 -3.5280 323° Northwest 192 221 3,800 -360 Descending FlightAware ADS-B
Tue 02:07:27 AM 40.3700 -3.5450 319° Northwest 178 205 3,800  Level FlightAware ADS-B
Tue 02:07:47 AM 40.3820 -3.5580 320° Northwest 179 206 3,800 -133 Level FlightAware ADS-B
Tue 02:08:12 AM 40.3990 -3.5770 320° Northwest 170 196 3,700 -545 Descending FlightAware ADS-B
Tue 02:08:42 AM 40.4170 -3.5960 321° Northwest 154 177 3,300 -800 Descending FlightAware ADS-B
Tue 02:08:57 AM 40.4240 -3.6040 319° Northwest 146 168 3,100 -750 Descending FlightAware ADS-B
Tue 02:09:22 AM 40.4370 -3.6170 323° Northwest 137 158 2,800 -764 Descending FlightAware ADS-B
Tue 02:09:52 AM 40.4510 -3.6340 317° Northwest 131 151 2,400 -667 Descending FlightAware ADS-B
Tue 02:10:07 AM 40.4580 -3.6410 323° Northwest 129 148 2,300 -600 Descending FlightAware ADS-B
Tue 02:10:32 AM 40.4700 -3.6540 321° Northwest 130 150 2,000 -750 Descending FlightAware ADS-B
Tue 02:10:47 AM 40.4760 -3.6610 318° Northwest 129 148 1,800 -800 Descending FlightAware ADS-B

Login

Don't have an account? Register now (free) for customized features, flight alerts, and more!